createdAt,value
2023-05-02T00:07:57.971Z,978.36
2023-05-02T00:19:58.623Z,978.33
2023-05-02T00:31:58.872Z,978.37
2023-05-02T00:43:59.318Z,978.39
2023-05-02T00:55:59.794Z,978.24
2023-05-02T01:08:00.234Z,978.25
2023-05-02T01:20:00.997Z,978.27
2023-05-02T01:32:01.158Z,978.24
2023-05-02T01:44:01.636Z,978.11
2023-05-02T01:56:02.071Z,978.05
2023-05-02T02:08:02.536Z,978.09
2023-05-02T02:20:03.006Z,978.08
2023-05-02T02:32:03.463Z,978.10
2023-05-02T02:44:03.851Z,978.16
2023-05-02T02:56:04.335Z,978.37
2023-05-02T03:08:04.784Z,978.50
2023-05-02T03:20:05.232Z,978.41
2023-05-02T03:32:05.709Z,978.52
2023-05-02T03:44:06.117Z,978.72
2023-05-02T03:56:06.566Z,978.79
2023-05-02T04:08:07.029Z,978.91
2023-05-02T04:20:07.790Z,979.07
2023-05-02T04:32:07.941Z,978.97
2023-05-02T04:44:08.379Z,979.09
2023-05-02T04:56:08.854Z,979.22
2023-05-02T05:08:09.320Z,979.28
2023-05-02T05:20:09.736Z,979.15
2023-05-02T05:32:10.340Z,979.24
2023-05-02T05:44:10.684Z,979.27
2023-05-02T05:56:11.098Z,979.24
2023-05-02T06:08:11.561Z,979.41
2023-05-02T06:20:12.099Z,979.39
2023-05-02T06:32:12.494Z,979.46
2023-05-02T06:44:12.900Z,979.48
2023-05-02T06:56:13.368Z,979.52
2023-05-02T07:08:13.852Z,979.48
2023-05-02T07:20:14.307Z,979.57
2023-05-02T07:32:14.773Z,979.64
2023-05-02T07:44:15.203Z,979.70
2023-05-02T07:56:15.605Z,979.93
2023-05-02T08:08:16.115Z,980.03
2023-05-02T08:20:16.545Z,980.08
2023-05-02T08:32:17.106Z,980.19
2023-05-02T08:44:17.462Z,980.14
2023-05-02T08:56:17.922Z,980.25
2023-05-02T09:08:18.440Z,980.33
2023-05-02T09:20:18.842Z,980.36
2023-05-02T09:32:19.472Z,980.42
2023-05-02T09:44:19.757Z,980.50
2023-05-02T09:56:20.202Z,980.52
2023-05-02T10:08:20.607Z,980.57
2023-05-02T10:20:21.108Z,980.60
2023-05-02T10:32:21.547Z,980.47
2023-05-02T10:44:21.992Z,980.45
2023-05-02T10:56:22.460Z,980.57
2023-05-02T11:08:23.458Z,980.49
2023-05-02T11:20:23.378Z,980.61
2023-05-02T11:32:23.865Z,980.67
2023-05-02T11:44:24.286Z,980.72
2023-05-02T11:56:24.699Z,980.75
2023-05-02T12:08:25.222Z,980.85
2023-05-02T12:20:25.651Z,980.91
2023-05-02T12:32:27.646Z,980.89
2023-05-02T12:44:26.532Z,980.87
2023-05-02T12:56:27.034Z,981.10
2023-05-02T13:08:27.441Z,981.10
2023-05-02T13:20:27.909Z,980.86
2023-05-02T13:32:28.367Z,980.81
2023-05-02T13:44:28.859Z,980.87
2023-05-02T13:56:29.248Z,980.89
2023-05-02T14:08:29.755Z,980.95
2023-05-02T14:20:30.146Z,980.86
2023-05-02T14:32:30.660Z,980.81
2023-05-02T14:44:31.097Z,980.94
2023-05-02T14:56:31.536Z,981.01
2023-05-02T15:08:31.982Z,981.06
2023-05-02T15:20:32.443Z,981.08
2023-05-02T15:32:32.939Z,981.24
2023-05-02T15:44:33.348Z,981.27
2023-05-02T15:56:33.784Z,981.27
2023-05-02T16:08:34.286Z,981.40
2023-05-02T16:20:34.734Z,981.47
2023-05-02T16:32:35.183Z,981.42
2023-05-02T16:44:35.636Z,981.55
2023-05-02T16:56:36.113Z,981.59
2023-05-02T17:08:36.525Z,981.81
2023-05-02T17:20:36.964Z,981.94
2023-05-02T17:32:37.534Z,982.17
2023-05-02T17:44:37.914Z,982.31
2023-05-02T17:56:38.365Z,982.41
2023-05-02T18:08:38.788Z,982.53
2023-05-02T18:20:39.263Z,982.58
2023-05-02T18:32:39.752Z,982.68
2023-05-02T18:44:40.176Z,982.90
2023-05-02T18:56:40.761Z,982.99
2023-05-02T19:08:41.054Z,983.12
2023-05-02T19:20:41.537Z,983.39
2023-05-02T19:32:42.023Z,983.43
2023-05-02T19:44:42.413Z,983.61
2023-05-02T19:56:42.849Z,983.73
2023-05-02T20:08:43.344Z,983.71
2023-05-02T20:20:43.767Z,983.82
2023-05-02T20:32:44.240Z,983.86
2023-05-02T20:44:44.694Z,984.02
2023-05-02T20:56:45.163Z,984.05
2023-05-02T21:08:45.609Z,984.06
2023-05-02T21:20:46.039Z,984.06
2023-05-02T21:32:46.527Z,983.95
2023-05-02T21:44:46.995Z,983.99
2023-05-02T21:56:47.388Z,984.06
2023-05-02T22:08:47.881Z,984.15
2023-05-02T22:20:48.304Z,984.15
2023-05-02T22:32:48.835Z,984.09
2023-05-02T22:44:53.990Z,984.04
2023-05-02T22:56:49.664Z,984.05
2023-05-02T23:08:50.119Z,984.23
2023-05-02T23:20:50.609Z,984.37
2023-05-02T23:32:51.034Z,984.18
2023-05-02T23:44:51.473Z,984.01
2023-05-02T23:56:51.913Z,983.96
